Terminal Aerodrome Forecast
Issued by NWS

Home | Current Version | Previous Version | Text Only | Print | Product List | Glossary On
Versions: 1 2 3 4 5 6 7 8 9 10 11 12 13 14 15 16 17 18 19 20 21 22 23 24 25 26 27 28 29
000
FTAK31 PANC 182335
TAFAAQ
TAF
PAAQ 182335Z 1900/1924 13008KT P6SM VCSH BKN070
     FM190600 05004KT P6SM VCSH BKN060
     FM191800 VRB05KT P6SM -SHRA SCT035 BKN050=

USA.gov is the U.S. government's official web portal to all federal, state and local government web resources and services.